AEZ2382 LIEE-LIPE
Flight info
| Callsign | AEZ2382 |
|---|---|
| Flight time | 0h 53m |
| Altitude | 34000 |
| Route | KOVAS Q125 DEXUL DCT ELB DCT MAREL DCT GINAR L12 LOMED |
| Aircraft | B738/M-SDE2E3FGHIRWXY/LB1 |
Departure
| Time | 2026-05-07 11:48 |
|---|---|
| Airport | Cagliari Elmas Airport (LIEE) |
Arrival
| Time | 2026-05-07 12:42 |
|---|---|
| Airport | Bologna Guglielmo Marconi Airport (LIPE) |
| Time | Latitude | Longitude | Altitude | Speed | Heading |
|---|---|---|---|---|---|
| 2026-05-07 11:20 | 39.25328 | 9.05791 | 16 ft | 0 kts | 89° |
| 2026-05-07 11:41 | 39.25328 | 9.05765 | 16 ft | 4 kts | 100° |
| 2026-05-07 11:41 | 39.25337 | 9.05734 | 18 ft | 4 kts | 129° |
| 2026-05-07 11:42 | 39.25355 | 9.05719 | 16 ft | 4 kts | 191° |
| 2026-05-07 11:42 | 39.25365 | 9.05725 | 16 ft | 1 kts | 233° |
| 2026-05-07 11:44 | 39.25357 | 9.05714 | 16 ft | 5 kts | 225° |
| 2026-05-07 11:44 | 39.25301 | 9.05717 | 16 ft | 13 kts | 149° |
| 2026-05-07 11:44 | 39.25217 | 9.05801 | 16 ft | 17 kts | 143° |
| 2026-05-07 11:45 | 39.25118 | 9.05796 | 16 ft | 15 kts | 198° |
| 2026-05-07 11:45 | 39.25022 | 9.05853 | 16 ft | 18 kts | 136° |
| 2026-05-07 11:45 | 39.24925 | 9.05972 | 16 ft | 21 kts | 136° |
| 2026-05-07 11:45 | 39.24810 | 9.06106 | 15 ft | 24 kts | 140° |
| 2026-05-07 11:46 | 39.24678 | 9.06250 | 15 ft | 26 kts | 139° |
| 2026-05-07 11:46 | 39.24533 | 9.06416 | 15 ft | 29 kts | 138° |
| 2026-05-07 11:46 | 39.24403 | 9.06554 | 15 ft | 23 kts | 154° |
| 2026-05-07 11:46 | 39.24292 | 9.06551 | 15 ft | 10 kts | 197° |
| 2026-05-07 11:47 | 39.24240 | 9.06499 | 16 ft | 10 kts | 255° |
| 2026-05-07 11:47 | 39.24255 | 9.06460 | 15 ft | 0 kts | 314° |
| 2026-05-07 11:47 | 39.24273 | 9.06437 | 15 ft | 26 kts | 316° |
| 2026-05-07 11:48 | 39.24660 | 9.05991 | 15 ft | 120 kts | 318° |
| 2026-05-07 11:48 | 39.25425 | 9.05107 | 435 ft | 158 kts | 317° |
| 2026-05-07 11:48 | 39.26304 | 9.04165 | 1449 ft | 167 kts | 323° |
| 2026-05-07 11:48 | 39.27243 | 9.03273 | 2566 ft | 172 kts | 336° |
| 2026-05-07 11:49 | 39.28036 | 9.03025 | 2915 ft | 186 kts | 7° |
| 2026-05-07 11:49 | 39.29914 | 9.03404 | 3526 ft | 216 kts | 12° |
| 2026-05-07 11:49 | 39.31426 | 9.03663 | 4168 ft | 223 kts | 9° |
| 2026-05-07 11:49 | 39.32996 | 9.03871 | 4928 ft | 229 kts | 7° |
| 2026-05-07 11:50 | 39.34583 | 9.04035 | 5774 ft | 233 kts | 6° |
| 2026-05-07 11:50 | 39.36225 | 9.04171 | 6682 ft | 236 kts | 5° |
| 2026-05-07 11:50 | 39.37861 | 9.04282 | 7479 ft | 240 kts | 4° |
| 2026-05-07 11:50 | 39.38988 | 9.04346 | 8075 ft | 241 kts | 4° |
| 2026-05-07 11:51 | 39.41229 | 9.04459 | 9206 ft | 246 kts | 3° |
| 2026-05-07 11:51 | 39.42953 | 9.04539 | 10060 ft | 248 kts | 3° |
| 2026-05-07 11:51 | 39.44690 | 9.04618 | 10810 ft | 253 kts | 2° |
| 2026-05-07 11:51 | 39.45887 | 9.04674 | 11303 ft | 257 kts | 2° |
| 2026-05-07 11:52 | 39.47710 | 9.04854 | 11768 ft | 277 kts | 4° |
| 2026-05-07 11:52 | 39.49754 | 9.05125 | 11988 ft | 306 kts | 5° |
| 2026-05-07 11:52 | 39.51941 | 9.05426 | 12209 ft | 333 kts | 5° |
| 2026-05-07 11:52 | 39.54342 | 9.05753 | 12410 ft | 359 kts | 5° |
| 2026-05-07 11:53 | 39.56913 | 9.06096 | 12661 ft | 381 kts | 5° |
| 2026-05-07 11:53 | 39.59579 | 9.06446 | 13259 ft | 390 kts | 5° |
| 2026-05-07 11:53 | 39.62298 | 9.06800 | 14035 ft | 393 kts | 4° |
| 2026-05-07 11:53 | 39.65028 | 9.07180 | 14768 ft | 398 kts | 7° |
| 2026-05-07 11:54 | 39.67765 | 9.07905 | 15454 ft | 403 kts | 13° |
| 2026-05-07 11:54 | 39.70488 | 9.08856 | 16108 ft | 409 kts | 14° |
| 2026-05-07 11:54 | 39.73239 | 9.09866 | 16747 ft | 414 kts | 14° |
| 2026-05-07 11:54 | 39.76040 | 9.10873 | 17376 ft | 419 kts | 13° |
| 2026-05-07 11:55 | 39.78880 | 9.11855 | 18021 ft | 424 kts | 13° |
| 2026-05-07 11:55 | 39.81759 | 9.12822 | 18589 ft | 429 kts | 12° |
| 2026-05-07 11:55 | 39.84633 | 9.13779 | 19132 ft | 433 kts | 12° |
| 2026-05-07 11:55 | 39.87588 | 9.14819 | 19712 ft | 437 kts | 13° |
| 2026-05-07 11:56 | 39.90476 | 9.15971 | 20271 ft | 441 kts | 14° |
| 2026-05-07 11:56 | 39.93439 | 9.17220 | 20852 ft | 444 kts | 14° |
| 2026-05-07 11:56 | 39.96352 | 9.18472 | 21332 ft | 448 kts | 14° |
| 2026-05-07 11:56 | 39.99365 | 9.19766 | 21811 ft | 453 kts | 14° |
| 2026-05-07 11:57 | 40.02342 | 9.21039 | 22331 ft | 457 kts | 13° |
| 2026-05-07 11:57 | 40.05369 | 9.22324 | 22844 ft | 460 kts | 13° |
| 2026-05-07 11:57 | 40.08432 | 9.23618 | 23345 ft | 463 kts | 13° |
| 2026-05-07 11:57 | 40.11545 | 9.24929 | 23783 ft | 467 kts | 12° |
| 2026-05-07 11:58 | 40.14618 | 9.26221 | 24147 ft | 471 kts | 12° |
| 2026-05-07 11:58 | 40.17740 | 9.27534 | 24543 ft | 474 kts | 12° |
| 2026-05-07 11:58 | 40.20895 | 9.28863 | 24924 ft | 477 kts | 12° |
| 2026-05-07 11:58 | 40.24059 | 9.30196 | 25300 ft | 481 kts | 12° |
| 2026-05-07 11:59 | 40.27263 | 9.31547 | 25604 ft | 485 kts | 12° |
| 2026-05-07 11:59 | 40.30482 | 9.32907 | 25930 ft | 488 kts | 12° |
| 2026-05-07 11:59 | 40.33722 | 9.34280 | 26350 ft | 488 kts | 12° |
| 2026-05-07 11:59 | 40.36955 | 9.35650 | 26716 ft | 491 kts | 12° |
| 2026-05-07 12:00 | 40.40224 | 9.37035 | 27015 ft | 494 kts | 12° |
| 2026-05-07 12:00 | 40.43498 | 9.38423 | 27353 ft | 497 kts | 12° |
| 2026-05-07 12:00 | 40.46808 | 9.39829 | 27627 ft | 501 kts | 12° |
| 2026-05-07 12:00 | 40.50143 | 9.41245 | 27902 ft | 504 kts | 12° |
| 2026-05-07 12:01 | 40.53483 | 9.42666 | 28198 ft | 507 kts | 12° |
| 2026-05-07 12:01 | 40.56856 | 9.44103 | 28538 ft | 509 kts | 12° |
| 2026-05-07 12:01 | 40.60240 | 9.45548 | 28888 ft | 511 kts | 12° |
| 2026-05-07 12:01 | 40.63613 | 9.46990 | 29325 ft | 511 kts | 11° |
| 2026-05-07 12:02 | 40.66996 | 9.48440 | 29797 ft | 510 kts | 11° |
| 2026-05-07 12:02 | 40.70361 | 9.49882 | 30187 ft | 510 kts | 11° |
| 2026-05-07 12:02 | 40.73745 | 9.51332 | 30522 ft | 510 kts | 11° |
| 2026-05-07 12:02 | 40.77112 | 9.52775 | 30910 ft | 509 kts | 11° |
| 2026-05-07 12:03 | 40.80442 | 9.54205 | 31282 ft | 508 kts | 11° |
| 2026-05-07 12:03 | 40.83794 | 9.55647 | 31667 ft | 507 kts | 11° |
| 2026-05-07 12:03 | 40.87153 | 9.57092 | 32076 ft | 506 kts | 11° |
| 2026-05-07 12:03 | 40.90490 | 9.58530 | 32436 ft | 505 kts | 11° |
| 2026-05-07 12:04 | 40.93837 | 9.59973 | 32818 ft | 504 kts | 10° |
| 2026-05-07 12:04 | 40.97176 | 9.61414 | 33213 ft | 503 kts | 10° |
| 2026-05-07 12:04 | 41.00503 | 9.62852 | 33625 ft | 501 kts | 10° |
| 2026-05-07 12:04 | 41.03805 | 9.64281 | 33979 ft | 500 kts | 10° |
| 2026-05-07 12:05 | 41.07139 | 9.65720 | 33991 ft | 505 kts | 10° |
| 2026-05-07 12:05 | 41.13824 | 9.68615 | 34001 ft | 504 kts | 11° |
| 2026-05-07 12:06 | 41.20411 | 9.71484 | 33997 ft | 498 kts | 11° |
| 2026-05-07 12:06 | 41.26993 | 9.74351 | 34010 ft | 498 kts | 11° |
| 2026-05-07 12:07 | 41.33571 | 9.77219 | 34012 ft | 497 kts | 11° |
| 2026-05-07 12:07 | 41.40146 | 9.80093 | 34011 ft | 497 kts | 12° |
| 2026-05-07 12:08 | 41.46719 | 9.82973 | 34016 ft | 497 kts | 12° |
| 2026-05-07 12:08 | 41.53290 | 9.85860 | 34013 ft | 497 kts | 12° |
| 2026-05-07 12:09 | 41.59829 | 9.88738 | 34014 ft | 497 kts | 12° |
| 2026-05-07 12:09 | 41.66420 | 9.91646 | 34015 ft | 496 kts | 12° |
| 2026-05-07 12:10 | 41.72946 | 9.94531 | 34019 ft | 496 kts | 12° |
| 2026-05-07 12:10 | 41.79492 | 9.97431 | 34016 ft | 495 kts | 12° |
| 2026-05-07 12:11 | 41.86029 | 10.00333 | 34018 ft | 495 kts | 12° |
| 2026-05-07 12:11 | 41.92574 | 10.03244 | 34022 ft | 494 kts | 12° |
| 2026-05-07 12:12 | 41.99083 | 10.06147 | 34019 ft | 494 kts | 12° |
| 2026-05-07 12:12 | 42.05618 | 10.09067 | 34021 ft | 494 kts | 12° |
| 2026-05-07 12:13 | 42.12123 | 10.11980 | 34022 ft | 494 kts | 12° |
| 2026-05-07 12:13 | 42.18598 | 10.14886 | 34023 ft | 494 kts | 12° |
| 2026-05-07 12:14 | 42.25132 | 10.17824 | 34020 ft | 494 kts | 12° |
| 2026-05-07 12:14 | 42.31693 | 10.20782 | 34021 ft | 494 kts | 12° |
| 2026-05-07 12:15 | 42.38154 | 10.23700 | 34020 ft | 494 kts | 12° |
| 2026-05-07 12:15 | 42.44687 | 10.26658 | 34023 ft | 494 kts | 12° |
| 2026-05-07 12:16 | 42.51206 | 10.29616 | 34026 ft | 494 kts | 12° |
| 2026-05-07 12:16 | 42.57725 | 10.32580 | 34025 ft | 494 kts | 12° |
| 2026-05-07 12:17 | 42.64241 | 10.35551 | 34029 ft | 494 kts | 12° |
| 2026-05-07 12:17 | 42.70762 | 10.38529 | 34022 ft | 494 kts | 12° |
| 2026-05-07 12:18 | 42.77271 | 10.41510 | 34019 ft | 493 kts | 12° |
| 2026-05-07 12:18 | 42.83731 | 10.44479 | 34024 ft | 493 kts | 13° |
| 2026-05-07 12:19 | 42.90245 | 10.47480 | 34021 ft | 493 kts | 13° |
| 2026-05-07 12:19 | 42.96736 | 10.50477 | 34032 ft | 492 kts | 12° |
| 2026-05-07 12:20 | 43.03224 | 10.53479 | 34027 ft | 492 kts | 13° |
| 2026-05-07 12:20 | 43.09711 | 10.56487 | 34035 ft | 492 kts | 13° |
| 2026-05-07 12:21 | 43.16200 | 10.59503 | 34017 ft | 493 kts | 13° |
| 2026-05-07 12:21 | 43.22705 | 10.62534 | 34025 ft | 493 kts | 13° |
| 2026-05-07 12:22 | 43.29155 | 10.65545 | 34012 ft | 493 kts | 13° |
| 2026-05-07 12:22 | 43.32410 | 10.67065 | 33503 ft | 499 kts | 13° |
| 2026-05-07 12:22 | 43.35698 | 10.68602 | 32818 ft | 496 kts | 13° |
| 2026-05-07 12:22 | 43.38959 | 10.70131 | 32057 ft | 496 kts | 13° |
| 2026-05-07 12:23 | 43.42236 | 10.71669 | 31255 ft | 497 kts | 13° |
| 2026-05-07 12:23 | 43.45501 | 10.73204 | 30450 ft | 497 kts | 13° |
| 2026-05-07 12:23 | 43.48783 | 10.74747 | 29523 ft | 498 kts | 13° |
| 2026-05-07 12:23 | 43.52058 | 10.76289 | 28516 ft | 499 kts | 13° |
| 2026-05-07 12:24 | 43.55349 | 10.77842 | 27537 ft | 499 kts | 14° |
| 2026-05-07 12:24 | 43.58621 | 10.79386 | 26519 ft | 500 kts | 14° |
| 2026-05-07 12:24 | 43.61924 | 10.80946 | 25511 ft | 501 kts | 14° |
| 2026-05-07 12:24 | 43.65206 | 10.82501 | 24797 ft | 494 kts | 14° |
| 2026-05-07 12:25 | 43.68449 | 10.84042 | 24073 ft | 489 kts | 14° |
| 2026-05-07 12:25 | 43.71652 | 10.85563 | 23245 ft | 486 kts | 15° |
| 2026-05-07 12:25 | 43.74841 | 10.87080 | 22416 ft | 481 kts | 15° |
| 2026-05-07 12:25 | 43.77949 | 10.88560 | 21653 ft | 475 kts | 15° |
| 2026-05-07 12:26 | 43.81085 | 10.90054 | 20900 ft | 468 kts | 15° |
| 2026-05-07 12:26 | 43.84112 | 10.91497 | 20178 ft | 462 kts | 15° |
| 2026-05-07 12:26 | 43.87132 | 10.92930 | 19548 ft | 454 kts | 15° |
| 2026-05-07 12:26 | 43.90093 | 10.94330 | 18844 ft | 448 kts | 15° |
| 2026-05-07 12:27 | 43.93032 | 10.95717 | 18108 ft | 442 kts | 15° |
| 2026-05-07 12:27 | 43.95923 | 10.97084 | 17317 ft | 437 kts | 15° |
| 2026-05-07 12:27 | 43.98829 | 10.98461 | 16548 ft | 432 kts | 16° |
| 2026-05-07 12:27 | 44.01609 | 10.99781 | 15855 ft | 426 kts | 16° |
| 2026-05-07 12:28 | 44.04391 | 11.01162 | 15182 ft | 421 kts | 18° |
| 2026-05-07 12:28 | 44.07090 | 11.02665 | 14501 ft | 417 kts | 20° |
| 2026-05-07 12:28 | 44.09751 | 11.04206 | 13802 ft | 413 kts | 20° |
| 2026-05-07 12:28 | 44.12405 | 11.05736 | 13058 ft | 408 kts | 20° |
| 2026-05-07 12:29 | 44.15017 | 11.07220 | 12326 ft | 404 kts | 20° |
| 2026-05-07 12:29 | 44.17605 | 11.08679 | 11629 ft | 400 kts | 20° |
| 2026-05-07 12:29 | 44.20178 | 11.10124 | 11074 ft | 393 kts | 20° |
| 2026-05-07 12:29 | 44.22662 | 11.11521 | 10926 ft | 376 kts | 20° |
| 2026-05-07 12:30 | 44.24671 | 11.12653 | 10785 ft | 363 kts | 20° |
| 2026-05-07 12:30 | 44.26977 | 11.13951 | 10619 ft | 350 kts | 20° |
| 2026-05-07 12:30 | 44.29192 | 11.15198 | 10498 ft | 338 kts | 20° |
| 2026-05-07 12:30 | 44.31337 | 11.16407 | 10336 ft | 327 kts | 20° |
| 2026-05-07 12:31 | 44.33409 | 11.17577 | 10194 ft | 317 kts | 20° |
| 2026-05-07 12:31 | 44.35424 | 11.18716 | 10068 ft | 307 kts | 20° |
| 2026-05-07 12:31 | 44.37381 | 11.19824 | 9927 ft | 298 kts | 20° |
| 2026-05-07 12:31 | 44.39258 | 11.20888 | 9824 ft | 288 kts | 20° |
| 2026-05-07 12:32 | 44.41172 | 11.21841 | 9322 ft | 291 kts | 8° |
| 2026-05-07 12:32 | 44.43147 | 11.21745 | 9003 ft | 283 kts | 341° |
| 2026-05-07 12:32 | 44.44856 | 11.20477 | 8693 ft | 276 kts | 317° |
| 2026-05-07 12:32 | 44.46055 | 11.18463 | 8380 ft | 271 kts | 297° |
| 2026-05-07 12:33 | 44.47765 | 11.13788 | 7888 ft | 267 kts | 295° |
| 2026-05-07 12:33 | 44.48592 | 11.11505 | 7754 ft | 260 kts | 295° |
| 2026-05-07 12:33 | 44.49403 | 11.09247 | 7491 ft | 259 kts | 294° |
| 2026-05-07 12:34 | 44.50205 | 11.06993 | 7237 ft | 257 kts | 294° |
| 2026-05-07 12:34 | 44.51003 | 11.04759 | 6967 ft | 257 kts | 294° |
| 2026-05-07 12:34 | 44.51802 | 11.02522 | 6703 ft | 256 kts | 295° |
| 2026-05-07 12:34 | 44.52600 | 11.00288 | 6428 ft | 256 kts | 295° |
| 2026-05-07 12:35 | 44.53393 | 10.98068 | 6154 ft | 255 kts | 295° |
| 2026-05-07 12:35 | 44.54185 | 10.95847 | 5893 ft | 254 kts | 295° |
| 2026-05-07 12:35 | 44.54975 | 10.93644 | 5599 ft | 253 kts | 297° |
| 2026-05-07 12:35 | 44.55667 | 10.92334 | 5403 ft | 256 kts | 316° |
| 2026-05-07 12:36 | 44.57218 | 10.91138 | 5144 ft | 258 kts | 345° |
| 2026-05-07 12:36 | 44.59559 | 10.91422 | 4793 ft | 259 kts | 21° |
| 2026-05-07 12:36 | 44.60649 | 10.92138 | 4720 ft | 254 kts | 25° |
| 2026-05-07 12:36 | 44.62718 | 10.93635 | 4530 ft | 250 kts | 32° |
| 2026-05-07 12:37 | 44.63822 | 10.95442 | 4406 ft | 245 kts | 70° |
| 2026-05-07 12:37 | 44.64019 | 10.97013 | 4255 ft | 244 kts | 94° |
| 2026-05-07 12:37 | 44.63531 | 11.00053 | 3968 ft | 241 kts | 108° |
| 2026-05-07 12:37 | 44.62986 | 11.02288 | 3707 ft | 242 kts | 111° |
| 2026-05-07 12:38 | 44.62557 | 11.03762 | 3528 ft | 242 kts | 114° |
| 2026-05-07 12:38 | 44.61835 | 11.05867 | 3272 ft | 242 kts | 117° |
| 2026-05-07 12:38 | 44.61071 | 11.07962 | 3091 ft | 239 kts | 117° |
| 2026-05-07 12:38 | 44.60324 | 11.10018 | 2833 ft | 233 kts | 116° |
| 2026-05-07 12:39 | 44.59607 | 11.12010 | 2534 ft | 224 kts | 116° |
| 2026-05-07 12:39 | 44.58920 | 11.13916 | 2266 ft | 213 kts | 116° |
| 2026-05-07 12:39 | 44.58269 | 11.15722 | 1990 ft | 204 kts | 116° |
| 2026-05-07 12:39 | 44.57634 | 11.17492 | 1731 ft | 204 kts | 116° |
| 2026-05-07 12:40 | 44.56998 | 11.19255 | 1453 ft | 197 kts | 116° |
| 2026-05-07 12:40 | 44.56406 | 11.20899 | 1192 ft | 179 kts | 116° |
| 2026-05-07 12:40 | 44.55877 | 11.22366 | 951 ft | 160 kts | 115° |
| 2026-05-07 12:40 | 44.55405 | 11.23686 | 780 ft | 141 kts | 115° |
| 2026-05-07 12:41 | 44.54981 | 11.24867 | 588 ft | 135 kts | 115° |
| 2026-05-07 12:41 | 44.54556 | 11.26051 | 417 ft | 137 kts | 115° |
| 2026-05-07 12:41 | 44.54123 | 11.27258 | 227 ft | 138 kts | 115° |
| 2026-05-07 12:41 | 44.53706 | 11.28430 | 124 ft | 123 kts | 115° |
| 2026-05-07 12:42 | 44.53463 | 11.29097 | 125 ft | 30 kts | 116° |
| 2026-05-07 12:42 | 44.53372 | 11.29347 | 126 ft | 28 kts | 119° |
| 2026-05-07 12:42 | 44.53297 | 11.29519 | 124 ft | 19 kts | 130° |
| 2026-05-07 12:42 | 44.53229 | 11.29539 | 125 ft | 11 kts | 232° |
| 2026-05-07 12:43 | 44.53204 | 11.29438 | 122 ft | 11 kts | 252° |
| 2026-05-07 12:43 | 44.53189 | 11.29402 | 126 ft | 3 kts | 225° |
| 2026-05-07 12:43 | 44.53171 | 11.29383 | 125 ft | 3 kts | 208° |
| 2026-05-07 12:43 | 44.53149 | 11.29370 | 125 ft | 3 kts | 201° |
| 2026-05-07 12:44 | 44.53128 | 11.29358 | 124 ft | 3 kts | 203° |
| 2026-05-07 12:44 | 44.53107 | 11.29344 | 125 ft | 3 kts | 206° |
| 2026-05-07 12:44 | 44.53088 | 11.29331 | 122 ft | 3 kts | 206° |
| 2026-05-07 12:44 | 44.53073 | 11.29320 | 122 ft | 0 kts | 206° |